createdAt,value
2023-08-17T00:00:29.933Z,23.67
2023-08-17T00:02:57.971Z,23.66
2023-08-17T00:05:27.687Z,23.66
2023-08-17T00:07:55.788Z,23.67
2023-08-17T00:10:23.887Z,23.66
2023-08-17T00:12:52.669Z,23.65
2023-08-17T00:15:22.173Z,23.65
2023-08-17T00:17:50.265Z,23.65
2023-08-17T00:20:18.597Z,23.64
2023-08-17T00:22:46.794Z,23.65
2023-08-17T00:25:15.107Z,23.65
2023-08-17T00:27:43.211Z,23.64
2023-08-17T00:30:12.274Z,23.65
2023-08-17T00:32:41.793Z,23.64
2023-08-17T00:35:10.228Z,23.63
2023-08-17T00:37:38.311Z,23.64
2023-08-17T00:40:07.328Z,23.64
2023-08-17T00:42:35.458Z,23.64
2023-08-17T00:45:03.842Z,23.64
2023-08-17T00:47:31.969Z,23.65
2023-08-17T00:50:01.432Z,23.63
2023-08-17T00:52:29.524Z,23.63
2023-08-17T00:54:57.693Z,23.64
2023-08-17T00:57:26.003Z,23.64
2023-08-17T01:00:04.725Z,23.64
2023-08-17T01:02:34.174Z,23.62
2023-08-17T01:05:03.699Z,23.63
2023-08-17T01:07:31.773Z,23.63
2023-08-17T01:09:59.911Z,23.62
2023-08-17T01:12:31.593Z,23.63
2023-08-17T01:15:04.728Z,23.62
2023-08-17T01:17:35.496Z,23.62
2023-08-17T01:20:06.320Z,23.63
2023-08-17T01:22:37.052Z,23.61
2023-08-17T01:25:07.387Z,23.62
2023-08-17T01:27:45.816Z,23.61
2023-08-17T01:30:15.900Z,23.62
2023-08-17T01:32:46.765Z,23.61
2023-08-17T01:35:31.286Z,23.62
2023-08-17T01:38:01.445Z,23.61
2023-08-17T01:40:31.038Z,23.61
2023-08-17T01:42:59.098Z,23.61
2023-08-17T01:45:27.158Z,23.60
2023-08-17T01:47:55.242Z,23.61
2023-08-17T01:50:23.455Z,23.60
2023-08-17T01:52:52.480Z,23.60
2023-08-17T01:55:25.810Z,23.60
2023-08-17T01:57:55.283Z,23.60
2023-08-17T02:00:24.169Z,23.60
2023-08-17T02:02:52.294Z,23.59
2023-08-17T02:05:20.629Z,23.59
2023-08-17T02:07:48.708Z,23.59
2023-08-17T02:10:16.894Z,23.59
2023-08-17T02:12:44.993Z,23.59
2023-08-17T02:15:14.896Z,23.59
2023-08-17T02:17:43.150Z,23.58
2023-08-17T02:20:12.386Z,23.58
2023-08-17T02:22:40.462Z,23.59
2023-08-17T02:25:08.987Z,23.58
2023-08-17T02:27:37.082Z,23.58
2023-08-17T02:30:06.180Z,23.58
2023-08-17T02:32:35.722Z,23.58
2023-08-17T02:35:03.847Z,23.57
2023-08-17T02:37:31.899Z,23.58
2023-08-17T02:40:00.216Z,23.57
2023-08-17T02:42:28.802Z,23.57
2023-08-17T02:44:56.891Z,23.58
2023-08-17T02:47:25.243Z,23.57
2023-08-17T02:49:56.160Z,23.57
2023-08-17T02:52:24.302Z,23.57
2023-08-17T02:54:52.464Z,23.57
2023-08-17T02:57:20.810Z,23.58
2023-08-17T02:59:48.853Z,23.57
2023-08-17T03:02:16.981Z,23.57
2023-08-17T03:04:45.019Z,23.57
2023-08-17T03:07:14.643Z,23.56
2023-08-17T03:09:42.754Z,23.57
2023-08-17T03:12:10.826Z,23.56
2023-08-17T03:14:38.939Z,23.56
2023-08-17T03:17:07.109Z,23.56
2023-08-17T03:19:36.515Z,23.55
2023-08-17T03:22:04.634Z,23.56
2023-08-17T03:24:34.130Z,23.56
2023-08-17T03:27:02.264Z,23.55
2023-08-17T03:29:30.805Z,23.55
2023-08-17T03:31:58.910Z,23.54
2023-08-17T03:34:29.204Z,23.55
2023-08-17T03:36:57.497Z,23.55
2023-08-17T03:39:25.685Z,23.55
2023-08-17T03:41:55.167Z,23.55
2023-08-17T03:44:23.353Z,23.54
2023-08-17T03:46:51.441Z,23.54
2023-08-17T03:49:19.505Z,23.55
2023-08-17T03:51:47.598Z,23.55
2023-08-17T03:54:15.710Z,23.54
2023-08-17T03:56:43.806Z,23.55
2023-08-17T03:59:13.409Z,23.55
2023-08-17T04:01:41.504Z,23.55
2023-08-17T04:04:10.276Z,23.55
2023-08-17T04:06:40.492Z,23.55
2023-08-17T04:09:09.438Z,23.54
2023-08-17T04:11:37.764Z,23.54
2023-08-17T04:14:05.992Z,23.54
2023-08-17T04:16:36.986Z,23.55
2023-08-17T04:19:06.181Z,23.55
2023-08-17T04:21:34.350Z,23.56
2023-08-17T04:24:02.597Z,23.55
2023-08-17T04:26:31.710Z,23.41
2023-08-17T04:28:59.810Z,23.30
2023-08-17T04:31:28.398Z,23.27
2023-08-17T04:34:03.264Z,23.21
2023-08-17T04:36:31.624Z,23.13
2023-08-17T04:39:00.207Z,23.09
2023-08-17T04:41:28.303Z,23.09
2023-08-17T04:43:56.968Z,23.09
2023-08-17T04:46:25.131Z,23.09
2023-08-17T04:48:53.561Z,23.09
2023-08-17T04:51:24.203Z,23.09
2023-08-17T04:53:52.353Z,23.09
2023-08-17T04:56:20.977Z,23.08
2023-08-17T04:58:49.102Z,23.08
2023-08-17T05:01:19.363Z,23.06
2023-08-17T05:03:48.362Z,23.05
2023-08-17T05:06:16.528Z,23.04
2023-08-17T05:08:46.388Z,23.03
2023-08-17T05:11:14.491Z,23.01
2023-08-17T05:13:42.628Z,23.03
2023-08-17T05:16:11.995Z,23.02
2023-08-17T05:18:40.324Z,23.03
2023-08-17T05:21:09.670Z,23.02
2023-08-17T05:23:37.782Z,23.05
2023-08-17T05:26:09.790Z,23.07
2023-08-17T05:28:37.935Z,23.11
2023-08-17T05:31:07.452Z,23.13
2023-08-17T05:33:38.626Z,23.15
2023-08-17T05:36:06.872Z,23.15
2023-08-17T05:38:34.988Z,23.18
2023-08-17T05:41:03.485Z,23.19
2023-08-17T05:43:32.891Z,23.21
2023-08-17T05:46:01.378Z,23.22
2023-08-17T05:48:29.457Z,23.23
2023-08-17T05:50:57.876Z,23.24
2023-08-17T05:53:25.929Z,23.25
2023-08-17T05:55:54.040Z,23.26
2023-08-17T05:58:22.051Z,23.26
2023-08-17T06:00:51.501Z,23.28
2023-08-17T06:03:19.651Z,23.29
2023-08-17T06:05:47.772Z,23.29
2023-08-17T06:08:15.861Z,23.30
2023-08-17T06:10:43.904Z,23.32
2023-08-17T06:13:11.970Z,23.33
2023-08-17T06:15:40.169Z,23.34
2023-08-17T06:18:09.936Z,23.33
2023-08-17T06:20:38.080Z,23.35
2023-08-17T06:23:06.193Z,23.35
2023-08-17T06:25:35.300Z,23.36
2023-08-17T06:28:03.499Z,23.36
2023-08-17T06:30:31.569Z,23.36
2023-08-17T06:33:00.215Z,23.37
2023-08-17T06:35:29.758Z,23.38
2023-08-17T06:37:59.203Z,23.38
2023-08-17T06:40:27.382Z,23.39
2023-08-17T06:42:56.580Z,23.40
2023-08-17T06:45:24.700Z,23.40
2023-08-17T06:47:52.800Z,23.40
2023-08-17T06:50:20.968Z,23.40
2023-08-17T06:52:50.489Z,23.41
2023-08-17T06:55:18.685Z,23.42
2023-08-17T06:57:46.794Z,23.42
2023-08-17T07:00:15.460Z,23.42
2023-08-17T07:02:54.215Z,23.43
2023-08-17T07:05:23.659Z,23.44
2023-08-17T07:07:54.055Z,23.45
2023-08-17T07:10:22.449Z,23.45
2023-08-17T07:12:50.574Z,23.45
2023-08-17T07:15:18.629Z,23.46
2023-08-17T07:17:46.765Z,23.46
2023-08-17T07:20:16.864Z,23.46
2023-08-17T07:22:45.621Z,23.48
2023-08-17T07:25:15.052Z,23.47
2023-08-17T07:27:43.401Z,23.48
2023-08-17T07:30:12.636Z,23.48
2023-08-17T07:32:40.930Z,23.48
2023-08-17T07:35:09.840Z,23.48
2023-08-17T07:37:38.009Z,23.48
2023-08-17T07:40:07.971Z,23.49
2023-08-17T07:42:37.818Z,23.50
2023-08-17T07:45:07.399Z,23.50
2023-08-17T07:47:36.533Z,23.50
2023-08-17T07:50:05.321Z,23.50
2023-08-17T07:52:33.383Z,23.50
2023-08-17T07:55:01.409Z,23.51
2023-08-17T07:57:29.824Z,23.52
2023-08-17T07:59:59.347Z,23.52
2023-08-17T08:02:27.544Z,23.52
2023-08-17T08:04:55.661Z,23.53
2023-08-17T08:07:23.796Z,23.53
2023-08-17T08:09:51.811Z,23.52
2023-08-17T08:12:19.944Z,23.53
2023-08-17T08:14:49.499Z,23.54
2023-08-17T08:17:20.049Z,23.54
2023-08-17T08:19:48.175Z,23.55
2023-08-17T08:22:16.256Z,23.54
2023-08-17T08:24:45.322Z,23.55
2023-08-17T08:27:13.517Z,23.54
2023-08-17T08:29:42.235Z,23.54
2023-08-17T08:32:10.325Z,23.56
2023-08-17T08:34:39.777Z,23.56
2023-08-17T08:37:07.865Z,23.56
2023-08-17T08:39:35.936Z,23.56
2023-08-17T08:42:04.129Z,23.57
2023-08-17T08:44:32.216Z,23.57
2023-08-17T08:47:00.212Z,23.57
2023-08-17T08:49:28.334Z,23.58
2023-08-17T08:52:00.570Z,23.57
2023-08-17T08:54:28.690Z,23.58
2023-08-17T08:57:01.724Z,23.58
2023-08-17T08:59:29.796Z,23.58
2023-08-17T09:01:58.602Z,23.59
2023-08-17T09:04:26.950Z,23.60
2023-08-17T09:06:55.291Z,23.59
2023-08-17T09:09:29.566Z,23.60
2023-08-17T09:11:58.791Z,23.59
2023-08-17T09:14:26.889Z,23.59
2023-08-17T09:16:54.984Z,23.60
2023-08-17T09:19:23.126Z,23.60
2023-08-17T09:21:51.715Z,23.60
2023-08-17T09:24:20.188Z,23.60
2023-08-17T09:26:50.040Z,23.61
2023-08-17T09:29:21.728Z,23.62
2023-08-17T09:31:50.022Z,23.61
2023-08-17T09:34:18.336Z,23.62
2023-08-17T09:36:48.779Z,23.62
2023-08-17T09:39:17.949Z,23.62
2023-08-17T09:41:46.117Z,23.63
2023-08-17T09:44:15.533Z,23.64
2023-08-17T09:46:45.758Z,23.64
2023-08-17T09:49:13.937Z,23.63
2023-08-17T09:51:44.557Z,23.63
2023-08-17T09:54:20.570Z,23.64
2023-08-17T09:56:48.638Z,23.64
2023-08-17T09:59:18.047Z,23.65
2023-08-17T10:01:46.356Z,23.65
2023-08-17T10:04:14.549Z,23.65
2023-08-17T10:06:43.131Z,23.66
2023-08-17T10:09:11.302Z,23.65
2023-08-17T10:11:40.127Z,23.65
2023-08-17T10:14:12.140Z,23.67
2023-08-17T10:16:45.467Z,23.67
2023-08-17T10:19:17.767Z,23.67
2023-08-17T10:21:47.232Z,23.67
2023-08-17T10:24:15.267Z,23.67
2023-08-17T10:26:43.533Z,23.67
2023-08-17T10:29:16.703Z,23.69
2023-08-17T10:31:47.913Z,23.69
2023-08-17T10:34:16.321Z,23.70
2023-08-17T10:36:44.674Z,23.70
2023-08-17T10:39:28.604Z,23.71
2023-08-17T10:41:57.720Z,23.72
2023-08-17T10:44:42.547Z,23.71
2023-08-17T10:47:24.963Z,23.71
2023-08-17T10:49:53.296Z,23.72
2023-08-17T10:52:31.087Z,23.72
2023-08-17T10:55:00.235Z,23.73
2023-08-17T10:57:32.496Z,23.73
2023-08-17T11:02:54.311Z,23.75
2023-08-17T11:05:38.726Z,23.74
2023-08-17T11:08:07.191Z,23.76
2023-08-17T11:10:36.006Z,23.76
2023-08-17T11:13:04.684Z,23.78
2023-08-17T11:15:43.944Z,23.78
2023-08-17T11:18:13.983Z,23.77
2023-08-17T11:20:43.233Z,23.79
2023-08-17T11:23:11.615Z,23.79
2023-08-17T11:25:39.779Z,23.80
2023-08-17T11:28:08.823Z,23.81
2023-08-17T11:30:38.931Z,23.81
2023-08-17T11:33:07.677Z,23.82
2023-08-17T11:35:37.173Z,23.82
2023-08-17T11:38:09.149Z,23.83
2023-08-17T11:40:37.448Z,23.83
2023-08-17T11:43:06.368Z,23.85
2023-08-17T11:45:34.587Z,23.85
2023-08-17T11:48:02.855Z,23.86
2023-08-17T11:50:31.097Z,23.87
2023-08-17T11:53:02.825Z,23.88
2023-08-17T11:55:31.183Z,23.89
2023-08-17T11:57:59.222Z,23.89
2023-08-17T12:00:27.778Z,23.90
2023-08-17T12:02:55.914Z,23.91
2023-08-17T12:05:25.153Z,23.91
2023-08-17T12:07:53.274Z,23.93
2023-08-17T12:10:23.550Z,23.93
2023-08-17T12:12:51.695Z,23.93
2023-08-17T12:15:19.820Z,23.95
2023-08-17T12:17:48.474Z,23.95
2023-08-17T12:20:19.709Z,23.97
2023-08-17T12:22:47.821Z,23.96
2023-08-17T12:25:15.928Z,23.97
2023-08-17T12:27:45.409Z,23.98
2023-08-17T12:30:16.920Z,23.99
2023-08-17T12:32:45.050Z,24.00
2023-08-17T12:35:13.157Z,24.00
2023-08-17T12:37:41.281Z,24.01
2023-08-17T12:40:11.035Z,24.02
2023-08-17T12:42:39.123Z,24.03
2023-08-17T12:45:09.733Z,24.04
2023-08-17T12:47:38.089Z,24.05
2023-08-17T12:50:06.525Z,24.05
2023-08-17T12:52:34.687Z,24.06
2023-08-17T12:55:02.793Z,24.06
2023-08-17T12:57:30.934Z,24.08
2023-08-17T12:59:59.134Z,24.08
2023-08-17T13:02:28.857Z,24.08
2023-08-17T13:04:57.204Z,24.09
2023-08-17T13:07:25.351Z,24.10
2023-08-17T13:09:53.371Z,24.11
2023-08-17T13:12:21.447Z,24.11
2023-08-17T13:14:49.483Z,24.11
2023-08-17T13:17:18.481Z,24.12
2023-08-17T13:19:47.925Z,24.13
2023-08-17T13:22:15.994Z,24.13
2023-08-17T13:24:44.067Z,24.14
2023-08-17T13:27:12.327Z,24.14
2023-08-17T13:29:41.203Z,24.15
2023-08-17T13:32:09.324Z,24.15
2023-08-17T13:34:37.393Z,24.16
2023-08-17T13:37:06.877Z,24.16
2023-08-17T13:39:34.943Z,24.16
2023-08-17T13:42:03.054Z,24.16
2023-08-17T13:44:31.081Z,24.16
2023-08-17T13:46:59.173Z,24.16
2023-08-17T13:49:29.024Z,24.16
2023-08-17T13:51:57.658Z,24.16
2023-08-17T13:54:27.154Z,24.15
2023-08-17T13:56:55.226Z,24.15
2023-08-17T13:59:23.291Z,24.15
2023-08-17T14:01:51.448Z,24.14
2023-08-17T14:04:19.776Z,24.14
2023-08-17T14:06:48.137Z,24.14
2023-08-17T14:09:16.206Z,24.15
2023-08-17T14:11:45.693Z,24.14
2023-08-17T14:14:13.746Z,24.14
2023-08-17T14:16:41.836Z,24.15
2023-08-17T14:19:09.920Z,24.14
2023-08-17T14:21:38.050Z,24.13
2023-08-17T14:24:07.781Z,24.13
2023-08-17T14:26:35.870Z,24.13
2023-08-17T14:29:05.707Z,24.13
2023-08-17T14:31:33.799Z,24.13
2023-08-17T14:34:06.231Z,24.13
2023-08-17T14:36:34.821Z,24.13
2023-08-17T14:39:02.877Z,24.14
2023-08-17T14:41:33.618Z,24.16
2023-08-17T14:44:02.924Z,24.16
2023-08-17T14:46:33.055Z,24.16
2023-08-17T14:49:01.192Z,24.18
2023-08-17T14:51:31.428Z,24.18
2023-08-17T14:54:00.146Z,24.18
2023-08-17T14:56:28.197Z,24.20
2023-08-17T14:58:56.311Z,24.21
2023-08-17T15:01:24.393Z,24.21
2023-08-17T15:03:54.180Z,24.21
2023-08-17T15:06:34.095Z,24.22
2023-08-17T15:09:04.164Z,24.22
2023-08-17T15:11:32.259Z,24.23
2023-08-17T15:14:00.353Z,24.24
2023-08-17T15:16:29.123Z,24.25
2023-08-17T15:18:58.704Z,24.25
2023-08-17T15:21:26.922Z,24.25
2023-08-17T15:23:55.516Z,24.25
2023-08-17T15:26:23.554Z,24.25
2023-08-17T15:28:51.774Z,24.25
2023-08-17T15:31:19.807Z,24.25
2023-08-17T15:33:47.937Z,24.25
2023-08-17T15:36:19.483Z,24.25
2023-08-17T15:38:47.545Z,24.25
2023-08-17T15:41:15.568Z,24.24
2023-08-17T15:43:43.669Z,24.23
2023-08-17T15:46:12.491Z,24.23
2023-08-17T15:48:40.589Z,24.23
2023-08-17T15:51:08.602Z,24.23
2023-08-17T15:53:40.489Z,24.23
2023-08-17T15:56:08.679Z,24.22
2023-08-17T15:58:36.729Z,24.22
2023-08-17T16:01:05.037Z,24.22
2023-08-17T16:03:33.275Z,24.21
2023-08-17T16:06:01.413Z,24.22
2023-08-17T16:08:47.220Z,24.23
2023-08-17T16:11:17.934Z,24.24
2023-08-17T16:13:47.162Z,24.24
2023-08-17T16:16:15.352Z,24.25
2023-08-17T16:18:43.456Z,24.26
2023-08-17T16:23:43.657Z,24.26
2023-08-17T16:26:12.960Z,24.27
2023-08-17T16:28:42.431Z,24.26
2023-08-17T16:31:11.097Z,24.28
2023-08-17T16:33:40.738Z,24.28
2023-08-17T16:36:09.087Z,24.27
2023-08-17T16:38:37.510Z,24.27
2023-08-17T16:41:05.603Z,24.29
2023-08-17T16:43:33.721Z,24.30
2023-08-17T16:46:03.259Z,24.29
2023-08-17T16:48:31.415Z,24.29
2023-08-17T16:50:59.709Z,24.28
2023-08-17T16:53:27.803Z,24.29
2023-08-17T16:55:55.975Z,24.29
2023-08-17T16:58:24.060Z,24.27
2023-08-17T17:00:52.741Z,24.29
2023-08-17T17:03:22.251Z,24.27
2023-08-17T17:05:50.421Z,24.28
2023-08-17T17:08:18.488Z,24.26
2023-08-17T17:10:46.561Z,24.27
2023-08-17T17:13:14.611Z,24.26
2023-08-17T17:15:42.693Z,24.26
2023-08-17T17:18:10.757Z,24.25
2023-08-17T17:20:40.272Z,24.26
2023-08-17T17:23:08.337Z,24.27
2023-08-17T17:25:36.397Z,24.28
2023-08-17T17:28:04.701Z,24.28
2023-08-17T17:30:32.772Z,24.29
2023-08-17T17:33:00.929Z,24.29
2023-08-17T17:35:29.013Z,24.30
2023-08-17T17:37:59.801Z,24.31
2023-08-17T17:40:29.928Z,24.32
2023-08-17T17:42:57.940Z,24.32
2023-08-17T17:45:26.630Z,24.31
2023-08-17T17:47:54.686Z,24.32
2023-08-17T17:50:22.844Z,24.32
2023-08-17T17:52:50.884Z,24.32
2023-08-17T17:55:20.622Z,24.35
2023-08-17T17:57:48.715Z,24.34
2023-08-17T18:00:17.202Z,24.36
2023-08-17T18:02:45.333Z,24.37
2023-08-17T18:05:13.432Z,24.39
2023-08-17T18:07:41.500Z,24.41
2023-08-17T18:10:10.178Z,24.42
2023-08-17T18:12:39.627Z,24.42
2023-08-17T18:15:08.627Z,24.41
2023-08-17T18:17:36.771Z,24.39
2023-08-17T18:20:05.747Z,24.39
2023-08-17T18:22:33.859Z,24.39
2023-08-17T18:25:01.990Z,24.38
2023-08-17T18:27:32.065Z,24.39
2023-08-17T18:30:01.504Z,24.37
2023-08-17T18:32:29.596Z,24.37
2023-08-17T18:34:57.694Z,24.36
2023-08-17T18:37:26.110Z,24.37
2023-08-17T18:39:54.441Z,24.37
2023-08-17T18:42:22.494Z,24.36
2023-08-17T18:44:50.577Z,24.36
2023-08-17T18:47:20.067Z,24.35
2023-08-17T18:49:48.169Z,24.35
2023-08-17T18:52:16.291Z,24.35
2023-08-17T18:54:59.516Z,24.36
2023-08-17T18:57:27.817Z,24.36
2023-08-17T18:59:56.002Z,24.36
2023-08-17T19:02:25.445Z,24.36
2023-08-17T19:04:53.577Z,24.35
2023-08-17T19:07:21.631Z,24.35
2023-08-17T19:09:49.692Z,24.35
2023-08-17T19:12:18.413Z,24.35
2023-08-17T19:14:46.535Z,24.35
2023-08-17T19:17:14.617Z,24.34
2023-08-17T19:19:44.123Z,24.34
2023-08-17T19:22:12.165Z,24.34
2023-08-17T19:24:40.612Z,24.34
2023-08-17T19:27:08.707Z,24.33
2023-08-17T19:29:36.778Z,24.33
2023-08-17T19:32:05.096Z,24.33
2023-08-17T19:34:33.188Z,24.32
2023-08-17T19:37:02.719Z,24.31
2023-08-17T19:39:30.821Z,24.31
2023-08-17T19:41:58.891Z,24.31
2023-08-17T19:44:26.995Z,24.30
2023-08-17T19:46:56.045Z,24.29
2023-08-17T19:49:24.182Z,24.29
2023-08-17T19:51:52.249Z,24.29
2023-08-17T19:54:21.714Z,24.29
2023-08-17T19:56:50.572Z,24.29
2023-08-17T19:59:18.642Z,24.30
2023-08-17T20:01:49.416Z,24.30
2023-08-17T20:04:17.544Z,24.32
2023-08-17T20:06:46.991Z,24.32
2023-08-17T20:09:15.203Z,24.31
2023-08-17T20:11:44.650Z,24.31
2023-08-17T20:14:14.132Z,24.31
2023-08-17T20:16:43.465Z,24.30
2023-08-17T20:19:11.935Z,24.31
2023-08-17T20:21:40.096Z,24.30
2023-08-17T20:24:10.861Z,24.30
2023-08-17T20:26:39.493Z,24.30
2023-08-17T20:29:08.913Z,24.29
2023-08-17T20:31:37.228Z,24.29
2023-08-17T20:34:05.437Z,24.28
2023-08-17T20:36:33.574Z,24.28
2023-08-17T20:39:07.852Z,24.27
2023-08-17T20:41:36.242Z,24.27
2023-08-17T20:44:04.420Z,24.25
2023-08-17T20:46:33.901Z,24.26
2023-08-17T20:49:01.956Z,24.23
2023-08-17T20:51:30.074Z,24.23
2023-08-17T20:53:58.733Z,24.21
2023-08-17T20:56:26.832Z,24.21
2023-08-17T20:58:55.563Z,24.21
2023-08-17T21:01:23.750Z,24.20
2023-08-17T21:03:53.981Z,24.18
2023-08-17T21:06:22.147Z,24.18
2023-08-17T21:08:50.371Z,24.17
2023-08-17T21:11:18.491Z,24.16
2023-08-17T21:13:46.524Z,24.16
2023-08-17T21:16:14.680Z,24.16
2023-08-17T21:18:42.711Z,24.14
2023-08-17T21:21:12.222Z,24.14
2023-08-17T21:23:40.270Z,24.13
2023-08-17T21:26:08.370Z,24.13
2023-08-17T21:28:36.451Z,24.13
2023-08-17T21:31:04.823Z,24.11
2023-08-17T21:33:32.997Z,24.11
2023-08-17T21:36:01.154Z,24.11
2023-08-17T21:38:30.594Z,24.10
2023-08-17T21:40:59.717Z,24.10
2023-08-17T21:43:27.888Z,24.09
2023-08-17T21:45:57.098Z,24.09
2023-08-17T21:48:25.310Z,24.08
2023-08-17T21:50:53.362Z,24.09
2023-08-17T21:53:21.482Z,24.08
2023-08-17T21:55:51.416Z,24.07
2023-08-17T21:58:19.684Z,24.05
2023-08-17T22:00:48.001Z,24.06
2023-08-17T22:03:17.242Z,24.06
2023-08-17T22:05:45.896Z,24.05
2023-08-17T22:08:14.281Z,24.05
2023-08-17T22:10:42.356Z,24.04
2023-08-17T22:13:11.862Z,24.04
2023-08-17T22:15:40.177Z,24.04
2023-08-17T22:18:08.437Z,24.03
2023-08-17T22:20:36.787Z,24.03
2023-08-17T22:23:05.133Z,24.03
2023-08-17T22:25:33.158Z,24.02
2023-08-17T22:28:01.441Z,24.02
2023-08-17T22:30:30.840Z,24.01
2023-08-17T22:32:58.983Z,24.01
2023-08-17T22:35:27.106Z,24.01
2023-08-17T22:37:55.187Z,24.00
2023-08-17T22:40:23.263Z,24.01
2023-08-17T22:42:51.390Z,23.99
2023-08-17T22:45:19.622Z,24.00
2023-08-17T22:47:49.186Z,23.98
2023-08-17T22:50:17.385Z,23.98
2023-08-17T22:52:45.427Z,23.98
2023-08-17T22:55:13.478Z,23.97
2023-08-17T22:57:41.588Z,23.96
2023-08-17T23:00:10.779Z,23.97
2023-08-17T23:02:38.893Z,23.96
2023-08-17T23:05:09.619Z,23.96
2023-08-17T23:07:37.750Z,23.96
2023-08-17T23:10:07.580Z,23.95
2023-08-17T23:12:35.784Z,23.95
2023-08-17T23:15:04.017Z,23.94
2023-08-17T23:17:32.137Z,23.94
2023-08-17T23:20:00.184Z,23.93
2023-08-17T23:22:29.665Z,23.93
2023-08-17T23:24:57.921Z,23.93
2023-08-17T23:27:26.180Z,23.92
2023-08-17T23:29:54.433Z,23.92
2023-08-17T23:32:28.254Z,23.92
2023-08-17T23:34:56.904Z,23.92
2023-08-17T23:37:25.084Z,23.91
2023-08-17T23:39:54.576Z,23.91
2023-08-17T23:42:22.666Z,23.92
2023-08-17T23:44:50.729Z,23.91
2023-08-17T23:47:18.824Z,23.91
2023-08-17T23:49:46.911Z,23.89
2023-08-17T23:52:15.014Z,23.90
2023-08-17T23:54:43.270Z,23.90
2023-08-17T23:57:13.145Z,23.90
2023-08-17T23:59:41.151Z,23.90
